Island Mist — WDH9725 — position and weather

sailwx.info

Track history (hours):
 
Tides and Currents Weather Stations Pressure Air Temp Water Temp Dewpoint Dewpoint Depression Visibility Wind Speed Wind Dir Waves Ship Positions

Island Mist

Owner: Island Tug & Barge Co., Seattle, WA. More information available from US FCC via Universal Licensing System and Coast Guard Vessel Documentation Center.

Last reported at 2018-Jan-21 16:30 UTC. Time now 2018-Jan-21 16:49 UTC.
Position N 49°15' W 123°15'.

Length 30 m; draft 3 m.

Type: Tow > 200 m length. MMSI: 367670970.

Date/timePositionNaut miles runAvg speedWind from/ knotsBaromVisibWave heightAir tempDewpointWater temp
2018-Jan-21 16:30N 49°15' W 123°15'0 0.0
2018-Jan-21 15:59N 49°15' W 123°15'0 0.0
2018-Jan-21 15:30N 49°15' W 123°15'0 0.0
2018-Jan-21 15:00N 49°15' W 123°15'0 0.0
2018-Jan-21 14:30N 49°15' W 123°15'0 0.0
2018-Jan-21 14:00N 49°15' W 123°15'0 0.0
2018-Jan-21 13:30N 49°15' W 123°15'0 0.0
2018-Jan-21 13:00N 49°15' W 123°15'0 0.0
2018-Jan-21 12:31N 49°15' W 123°15'0 0.0
2018-Jan-21 12:00N 49°15' W 123°15'0 0.0
2018-Jan-21 11:30N 49°15' W 123°15'0 0.0
2018-Jan-21 11:00N 49°15' W 123°15'0 0.0
2018-Jan-21 10:31N 49°15' W 123°15'0 0.0
2018-Jan-21 10:00N 49°15' W 123°15'0 0.0
2018-Jan-21 09:30N 49°15' W 123°15'0 0.0
2018-Jan-21 09:00N 49°15' W 123°15'0 0.0
2018-Jan-21 08:31N 49°15' W 123°15'0 0.0
2018-Jan-21 08:00N 49°15' W 123°15'0 0.0
2018-Jan-21 07:31N 49°15' W 123°15'0 0.0
2018-Jan-21 07:00N 49°15' W 123°15'0 0.0
2018-Jan-21 06:31N 49°15' W 123°15'0 0.0
2018-Jan-21 06:00N 49°15' W 123°15'0 0.0
2018-Jan-21 05:30N 49°15' W 123°15'0 0.0
2018-Jan-21 05:00N 49°15' W 123°15'0 0.0
2018-Jan-21 04:30N 49°15' W 123°15'0 0.0
2018-Jan-21 03:58N 49°15' W 123°15'0 0.0
2018-Jan-21 03:30N 49°15' W 123°15'0 0.0
2018-Jan-21 02:59N 49°15' W 123°15'0 0.0
2018-Jan-21 02:29N 49°15' W 123°15'0 0.0
2018-Jan-21 01:59N 49°15' W 123°15'0 0.0
2018-Jan-21 01:30N 49°15' W 123°15'0 0.1
2018-Jan-21 00:59N 49°15' W 123°15'0 0.1
2018-Jan-21 00:29N 49°15' W 123°15'0 0.0
2018-Jan-21 00:00N 49°15' W 123°15'0 0.0
2018-Jan-20 23:30N 49°15' W 123°15'0 0.1
2018-Jan-20 23:00N 49°15' W 123°15'0 0.1
2018-Jan-20 22:30N 49°15' W 123°15'0 0.0
2018-Jan-20 22:00N 49°15' W 123°15'0 0.1
2018-Jan-20 21:30N 49°15' W 123°15'0 0.1
2018-Jan-20 20:59N 49°15' W 123°15'0 0.0
2018-Jan-20 20:30N 49°15' W 123°15'0 0.0
2018-Jan-20 20:00N 49°15' W 123°15'0 0.0
2018-Jan-20 19:29N 49°15' W 123°15'0 0.0
2018-Jan-20 19:01N 49°15' W 123°15'0 0.0
2018-Jan-20 18:30N 49°15' W 123°15'0 0.0
2018-Jan-20 18:00N 49°15' W 123°15'2 2.9
2018-Jan-20 17:29N 49°16' W 123°17'1 2.0
2018-Jan-20 17:00N 49°15' W 123°18'0 0.3
2018-Jan-20 16:30N 49°15' W 123°18'2 3.2
2018-Jan-20 16:00N 49°13' W 123°19'2 3.1
2018-Jan-20 15:31N 49°12' W 123°19'2 3.1
2018-Jan-20 15:00N 49°10' W 123°20'2 3.1
2018-Jan-20 14:29N 49°08' W 123°20'2 5.2
2018-Jan-20 14:00N 49°06' W 123°20'3 5.2
2018-Jan-20 13:23N 49°03' W 123°18'2 5.6
2018-Jan-20 12:58N 49°01' W 123°16'3 5.7
2018-Jan-20 12:30N 48°60' W 123°13'3 5.2
2018-Jan-20 12:00N 48°58' W 123°10'3 5.8
2018-Jan-20 11:30N 48°56' W 123°07'3 5.7
2018-Jan-20 11:01N 48°54' W 123°04'7 6.2
2018-Jan-20 09:54N 48°50' W 122°56'4 6.7
2018-Jan-20 09:20N 48°47' W 122°51'3 7.3
2018-Jan-20 08:55N 48°46' W 122°47'3 7.2
2018-Jan-20 08:31N 48°43' W 122°45'3 6.5
2018-Jan-20 08:01N 48°41' W 122°42'3 6.1
2018-Jan-20 07:30N 48°38' W 122°44'2 5.0
2018-Jan-20 07:00N 48°35' W 122°45'2 4.2
2018-Jan-20 06:31N 48°33' W 122°45'2 4.7
2018-Jan-20 06:01N 48°31' W 122°44'3 5.1
2018-Jan-20 05:30N 48°28' W 122°44'3 5.7
2018-Jan-20 05:00N 48°26' W 122°44'25 7.4
2018-Jan-20 01:38N 48°01' W 122°37'1 8.0
2018-Jan-20 01:28N 48°00' W 122°36'4 7.5
2018-Jan-20 01:00N 47°57' W 122°33'4 7.6
2018-Jan-20 00:31N 47°55' W 122°29'4 7.8
2018-Jan-20 00:01N 47°51' W 122°27'4 8.0
2018-Jan-19 23:31N 47°47' W 122°26'4 8.4
2018-Jan-19 23:01N 47°43' W 122°26'4 8.4
2018-Jan-19 22:30N 47°39' W 122°27'4 7.6
2018-Jan-19 22:01N 47°36' W 122°23'2 4.9
2018-Jan-19 21:31N 47°34' W 122°21'1 1.0
2018-Jan-19 21:00N 47°34' W 122°21'0 0.0
2018-Jan-19 20:30N 47°34' W 122°21'  
2018-Jan-12 14:58N 47°33' W 122°20'2 2.2
2018-Jan-12 14:11N 47°34' W 122°21'0 0.0
2018-Jan-12 09:25N 47°34' W 122°21'0 0.0
2018-Jan-12 08:54N 47°34' W 122°21'0 0.0
2018-Jan-12 08:12N 47°34' W 122°21'0 0.2
2018-Jan-12 07:58N 47°34' W 122°21'0 0.1
2018-Jan-12 07:28N 47°34' W 122°21'0 0.0
2018-Jan-12 06:20N 47°34' W 122°21'0 0.0
2018-Jan-12 05:56N 47°34' W 122°21'0 0.0
2018-Jan-12 05:23N 47°34' W 122°21'0 0.0
2018-Jan-12 04:59N 47°34' W 122°21'0 0.0
2018-Jan-12 04:30N 47°34' W 122°21'0 0.0
2018-Jan-12 03:58N 47°34' W 122°21'0 0.0
2018-Jan-12 03:30N 47°34' W 122°21'0 0.0
2018-Jan-12 02:55N 47°34' W 122°21'0 0.0
2018-Jan-12 02:21N 47°34' W 122°21'1 2.0
2018-Jan-12 02:00N 47°35' W 122°22'1 1.9
2018-Jan-12 01:17N 47°34' W 122°21'0 0.0
2018-Jan-12 00:59N 47°34' W 122°21'0 0.0
2018-Jan-12 00:31N 47°34' W 122°21'0 0.0
2018-Jan-12 00:00N 47°34' W 122°21'1 1.2
2018-Jan-11 23:29N 47°34' W 122°21'0 0.9
2018-Jan-11 22:56N 47°34' W 122°21'0 0.9
2018-Jan-11 22:21N 47°34' W 122°21'0 0.1
2018-Jan-11 21:36N 47°34' W 122°21'0 0.0
2018-Jan-11 21:20N 47°34' W 122°21'0 0.0
2018-Jan-11 20:02N 47°34' W 122°21'0 0.0
2018-Jan-11 19:56N 47°34' W 122°21'0 0.0
2018-Jan-11 19:30N 47°34' W 122°21'0 1.0
2018-Jan-11 19:01N 47°34' W 122°21'0 0.2
2018-Jan-11 18:30N 47°34' W 122°21'  
Track history (hours):
 
Tides and Currents Weather Stations Pressure Air Temp Water Temp Dewpoint Dewpoint Depression Visibility Wind Speed Wind Dir Waves Ship Positions

Island Mist

Owner: Island Tug & Barge Co., Seattle, WA. More information available from US FCC via Universal Licensing System and Coast Guard Vessel Documentation Center.

Last reported at 2018-Jan-21 16:30 UTC. Time now 2018-Jan-21 16:49 UTC.
Position N 49°15' W 123°15'.

Length 30 m; draft 3 m.

Type: Tow > 200 m length. MMSI: 367670970.

Date/timePositionNaut miles runAvg speedWind from/ knotsBaromVisibWave heightAir tempDewpointWater temp
2018-Jan-21 16:30N 49°15' W 123°15'0 0.0
2018-Jan-21 15:59N 49°15' W 123°15'0 0.0
2018-Jan-21 15:30N 49°15' W 123°15'0 0.0
2018-Jan-21 15:00N 49°15' W 123°15'0 0.0
2018-Jan-21 14:30N 49°15' W 123°15'0 0.0
2018-Jan-21 14:00N 49°15' W 123°15'0 0.0
2018-Jan-21 13:30N 49°15' W 123°15'0 0.0
2018-Jan-21 13:00N 49°15' W 123°15'0 0.0
2018-Jan-21 12:31N 49°15' W 123°15'0 0.0
2018-Jan-21 12:00N 49°15' W 123°15'0 0.0
2018-Jan-21 11:30N 49°15' W 123°15'0 0.0
2018-Jan-21 11:00N 49°15' W 123°15'0 0.0
2018-Jan-21 10:31N 49°15' W 123°15'0 0.0
2018-Jan-21 10:00N 49°15' W 123°15'0 0.0
2018-Jan-21 09:30N 49°15' W 123°15'0 0.0
2018-Jan-21 09:00N 49°15' W 123°15'0 0.0
2018-Jan-21 08:31N 49°15' W 123°15'0 0.0
2018-Jan-21 08:00N 49°15' W 123°15'0 0.0
2018-Jan-21 07:31N 49°15' W 123°15'0 0.0
2018-Jan-21 07:00N 49°15' W 123°15'0 0.0
2018-Jan-21 06:31N 49°15' W 123°15'0 0.0
2018-Jan-21 06:00N 49°15' W 123°15'0 0.0
2018-Jan-21 05:30N 49°15' W 123°15'0 0.0
2018-Jan-21 05:00N 49°15' W 123°15'0 0.0
2018-Jan-21 04:30N 49°15' W 123°15'0 0.0
2018-Jan-21 03:58N 49°15' W 123°15'0 0.0
2018-Jan-21 03:30N 49°15' W 123°15'0 0.0
2018-Jan-21 02:59N 49°15' W 123°15'0 0.0
2018-Jan-21 02:29N 49°15' W 123°15'0 0.0
2018-Jan-21 01:59N 49°15' W 123°15'0 0.0
2018-Jan-21 01:30N 49°15' W 123°15'0 0.1
2018-Jan-21 00:59N 49°15' W 123°15'0 0.1
2018-Jan-21 00:29N 49°15' W 123°15'0 0.0
2018-Jan-21 00:00N 49°15' W 123°15'0 0.0
2018-Jan-20 23:30N 49°15' W 123°15'0 0.1
2018-Jan-20 23:00N 49°15' W 123°15'0 0.1
2018-Jan-20 22:30N 49°15' W 123°15'0 0.0
2018-Jan-20 22:00N 49°15' W 123°15'0 0.1
2018-Jan-20 21:30N 49°15' W 123°15'0 0.1
2018-Jan-20 20:59N 49°15' W 123°15'0 0.0
2018-Jan-20 20:30N 49°15' W 123°15'0 0.0
2018-Jan-20 20:00N 49°15' W 123°15'0 0.0
2018-Jan-20 19:29N 49°15' W 123°15'0 0.0
2018-Jan-20 19:01N 49°15' W 123°15'0 0.0
2018-Jan-20 18:30N 49°15' W 123°15'0 0.0
2018-Jan-20 18:00N 49°15' W 123°15'2 2.9
2018-Jan-20 17:29N 49°16' W 123°17'1 2.0
2018-Jan-20 17:00N 49°15' W 123°18'0 0.3
2018-Jan-20 16:30N 49°15' W 123°18'2 3.2
2018-Jan-20 16:00N 49°13' W 123°19'2 3.1
2018-Jan-20 15:31N 49°12' W 123°19'2 3.1
2018-Jan-20 15:00N 49°10' W 123°20'2 3.1
2018-Jan-20 14:29N 49°08' W 123°20'2 5.2
2018-Jan-20 14:00N 49°06' W 123°20'3 5.2
2018-Jan-20 13:23N 49°03' W 123°18'2 5.6
2018-Jan-20 12:58N 49°01' W 123°16'3 5.7
2018-Jan-20 12:30N 48°60' W 123°13'3 5.2
2018-Jan-20 12:00N 48°58' W 123°10'3 5.8
2018-Jan-20 11:30N 48°56' W 123°07'3 5.7
2018-Jan-20 11:01N 48°54' W 123°04'7 6.2
2018-Jan-20 09:54N 48°50' W 122°56'4 6.7
2018-Jan-20 09:20N 48°47' W 122°51'3 7.3
2018-Jan-20 08:55N 48°46' W 122°47'3 7.2
2018-Jan-20 08:31N 48°43' W 122°45'3 6.5
2018-Jan-20 08:01N 48°41' W 122°42'3 6.1
2018-Jan-20 07:30N 48°38' W 122°44'2 5.0
2018-Jan-20 07:00N 48°35' W 122°45'2 4.2
2018-Jan-20 06:31N 48°33' W 122°45'2 4.7
2018-Jan-20 06:01N 48°31' W 122°44'3 5.1
2018-Jan-20 05:30N 48°28' W 122°44'3 5.7
2018-Jan-20 05:00N 48°26' W 122°44'25 7.4
2018-Jan-20 01:38N 48°01' W 122°37'1 8.0
2018-Jan-20 01:28N 48°00' W 122°36'4 7.5
2018-Jan-20 01:00N 47°57' W 122°33'4 7.6
2018-Jan-20 00:31N 47°55' W 122°29'4 7.8
2018-Jan-20 00:01N 47°51' W 122°27'4 8.0
2018-Jan-19 23:31N 47°47' W 122°26'4 8.4
2018-Jan-19 23:01N 47°43' W 122°26'4 8.4
2018-Jan-19 22:30N 47°39' W 122°27'4 7.6
2018-Jan-19 22:01N 47°36' W 122°23'2 4.9
2018-Jan-19 21:31N 47°34' W 122°21'1 1.0
2018-Jan-19 21:00N 47°34' W 122°21'0 0.0
2018-Jan-19 20:30N 47°34' W 122°21'  
2018-Jan-12 14:58N 47°33' W 122°20'2 2.2
2018-Jan-12 14:11N 47°34' W 122°21'0 0.0
2018-Jan-12 09:25N 47°34' W 122°21'0 0.0
2018-Jan-12 08:54N 47°34' W 122°21'0 0.0
2018-Jan-12 08:12N 47°34' W 122°21'0 0.2
2018-Jan-12 07:58N 47°34' W 122°21'0 0.1
2018-Jan-12 07:28N 47°34' W 122°21'0 0.0
2018-Jan-12 06:20N 47°34' W 122°21'0 0.0
2018-Jan-12 05:56N 47°34' W 122°21'0 0.0
2018-Jan-12 05:23N 47°34' W 122°21'0 0.0
2018-Jan-12 04:59N 47°34' W 122°21'0 0.0
2018-Jan-12 04:30N 47°34' W 122°21'0 0.0
2018-Jan-12 03:58N 47°34' W 122°21'0 0.0
2018-Jan-12 03:30N 47°34' W 122°21'0 0.0
2018-Jan-12 02:55N 47°34' W 122°21'0 0.0
2018-Jan-12 02:21N 47°34' W 122°21'1 2.0
2018-Jan-12 02:00N 47°35' W 122°22'1 1.9
2018-Jan-12 01:17N 47°34' W 122°21'0 0.0
2018-Jan-12 00:59N 47°34' W 122°21'0 0.0
2018-Jan-12 00:31N 47°34' W 122°21'0 0.0
2018-Jan-12 00:00N 47°34' W 122°21'1 1.2
2018-Jan-11 23:29N 47°34' W 122°21'0 0.9
2018-Jan-11 22:56N 47°34' W 122°21'0 0.9
2018-Jan-11 22:21N 47°34' W 122°21'0 0.1
2018-Jan-11 21:36N 47°34' W 122°21'0 0.0
2018-Jan-11 21:20N 47°34' W 122°21'0 0.0
2018-Jan-11 20:02N 47°34' W 122°21'0 0.0
2018-Jan-11 19:56N 47°34' W 122°21'0 0.0
2018-Jan-11 19:30N 47°34' W 122°21'0 1.0
2018-Jan-11 19:01N 47°34' W 122°21'0 0.2
2018-Jan-11 18:30N 47°34' W 122°21'  

Dump ship's entire track history